Flight Track Log - Related Links

Times and Time Zones

All times are in EDT time to prevent confusion due to time zone crossing. See the CHQ6101 flight status page for this flight to view local times or setup timezone preferences in your user account.

Time Position Orientation Groundspeed Altitude Reporting Facility
EDT Latitude Longitude Course Direction KTS MPH feet Rate Location/Type
Mon 01:55:52 PM 40.7333 -73.8167 21° North 184 212 2,200  Level New York TRACON
Mon 01:56:51 PM 40.7667 -73.7667 49° Northeast 250 288 4,000 1,966 Climbing New York TRACON
Mon 01:57:51 PM 40.8167 -73.8333 315° West 248 285 6,100 1,941 Climbing New York TRACON
Mon 01:58:00 PM 41.1657 -73.5551 33° Northeast  Level FlightAware Approximate
Mon 01:59:00 PM 41.2627 -73.4701 33° Northeast  Level FlightAware Approximate
Mon 02:00:00 PM 41.3664 -73.4002 27° Northeast  Level FlightAware Approximate
Mon 02:00:15 PM 41.0036 -73.7133 26° Northeast 321 369 10,600  Level Boston Center
Mon 02:01:00 PM 40.8672 -73.7914 21° North  Level FlightAware Approximate
Mon 02:01:16 PM 41.0875 -73.6428 32° Northeast 351 404 12,600  Level Boston Center
Mon 02:02:18 PM 41.1708 -73.5731 32° Northeast 353 406 14,400 1,707 Climbing Boston Center
Mon 02:03:19 PM 41.2633 -73.4956 32° Northeast 361 415 16,100 1,525 Climbing Boston Center
Mon 02:04:20 PM 41.3517 -73.4214 32° Northeast 370 426 17,500 1,426 Climbing Boston Center
Mon 02:05:21 PM 41.4397 -73.3475 32° Northeast 380 437 19,000 1,475 Climbing Boston Center
Mon 02:06:22 PM 41.5364 -73.3067 18° North 378 435 20,500 1,426 Climbing Boston Center
Mon 02:07:23 PM 41.6442 -73.3089 359° North 383 441 21,900 1,475 Climbing Boston Center
Mon 02:08:24 PM 41.7503 -73.3119 359° North 383 441 23,500 1,475 Climbing Boston Center
Mon 02:09:25 PM 41.8550 -73.3142 359° North 380 437 24,900 738 Climbing Boston Center
Mon 02:10:26 PM 41.9636 -73.3172 359° North 384 442 25,000 49 Climbing Boston Center
Mon 02:11:27 PM 42.0761 -73.3197 359° North 398 458 25,000  Level Boston Center
Mon 02:12:29 PM 42.1867 -73.3233 359° North 399 459 25,000  Level Boston Center
Mon 02:13:30 PM 42.2986 -73.3256 359° North 399 459 25,000  Level Boston Center
Mon 02:14:31 PM 42.4122 -73.2344 31° Northeast 407 468 25,000  Level Boston Center
Mon 02:15:32 PM 42.4844 -73.1108 52° Northeast 411 473 25,000  Level Boston Center
Mon 02:16:33 PM 42.5553 -72.9892 52° Northeast 411 473 25,000  Level Boston Center
Mon 02:17:34 PM 42.6250 -72.8672 52° Northeast 411 473 25,000  Level Boston Center
Mon 02:18:35 PM 42.6939 -72.7483 52° Northeast 403 464 25,000  Level Boston Center
Mon 02:19:37 PM 42.7694 -72.6156 52° Northeast 409 471 25,000  Level Boston Center
Mon 02:20:38 PM 42.8306 -72.5086 52° Northeast 414 476 25,000  Level Boston Center
Mon 02:21:39 PM 42.9150 -72.3622 52° Northeast 411 473 25,000  Level Boston Center
Mon 02:22:40 PM 42.9797 -72.2472 52° Northeast 411 473 25,000 -148 Level Boston Center
Mon 02:23:41 PM 43.0489 -72.1219 53° Northeast 412 474 24,700 -488 Descending Boston Center
Mon 02:24:43 PM 43.1181 -72.0011 52° Northeast 410 472 24,000 -341 Descending Boston Center
Mon 02:25:44 PM 43.1889 -71.8778 52° Northeast 408 470 24,000  Level Boston Center
Mon 02:26:45 PM 43.2578 -71.7519 53° Northeast 410 472 24,000  Level Boston Center
Mon 02:27:46 PM 43.3286 -71.6261 52° Northeast 412 474 24,000 -732 Level Boston Center
Mon 02:28:48 PM 43.3983 -71.4983 53° Northeast 417 480 22,500 -2,244 Descending Boston Center
Mon 02:29:49 PM 43.4819 -71.3458 53° Northeast 418 481 19,400 -1,721 Descending Boston Center
Mon 02:30:50 PM 43.5472 -71.2253 53° Northeast 392 451 19,000 -197 Descending Boston Center
Mon 02:31:51 PM 43.6081 -71.1167 52° Northeast 362 417 19,000 -976 Level Boston Center
Mon 02:32:53 PM 43.6753 -70.9992 52° Northeast 374 430 17,000 -2,293 Descending Boston Center
Mon 02:33:54 PM 43.7458 -70.8781 51° Northeast 375 432 14,300 -2,508 Descending Boston Center
Mon 02:34:55 PM 43.8103 -70.7639 52° Northeast 376 433 11,900 -1,623 Descending Boston Center
Mon 02:35:56 PM 43.8744 -70.6536 51° Northeast 367 422 11,000 -390 Descending Boston Center
Mon 02:36:58 PM 43.9336 -70.5439 53° Northeast 354 407 11,100 49 Climbing Boston Center
Mon 02:37:59 PM 43.9922 -70.4319 54° Northeast 356 410 11,100 -49 Level Boston Center
Mon 02:39:00 PM 44.0547 -70.3133 54° Northeast 355 409 11,000 -49 Descending Boston Center
Mon 02:40:01 PM 44.1119 -70.2031 54° Northeast 351 404 11,000  Level Boston Center
Mon 02:41:02 PM 44.1694 -70.0911 54° Northeast 353 406 11,000 49 Level Boston Center
Mon 02:42:03 PM 44.2261 -69.9819 54° Northeast 350 403 11,100 49 Climbing Boston Center
Mon 02:43:05 PM 44.2825 -69.8736 54° Northeast 349 402 11,100  Level Boston Center
Mon 02:44:06 PM 44.3500 -69.7636 49° Northeast 347 399 11,100  Level Boston Center
Mon 02:45:07 PM 44.4139 -69.6661 47° Northeast 345 397 11,100 -49 Level Boston Center
Mon 02:46:08 PM 44.4747 -69.5736 47° Northeast 343 395 11,000 -295 Descending Boston Center
Mon 02:47:09 PM 44.5386 -69.4767 47° Northeast 342 394 10,500 -1,073 Descending Boston Center
Mon 02:48:11 PM 44.6000 -69.3833 47° Northeast 333 383 8,800 -1,756 Descending Boston Center
Mon 02:49:12 PM 44.6600 -69.2922 47° Northeast 324 373 6,900 -1,770 Descending Boston Center
Mon 02:50:13 PM 44.7175 -69.2017 48° Northeast 319 367 5,200 -1,623 Descending Boston Center
Mon 02:51:14 PM 44.7847 -69.0986 47° Northeast 304 350 3,600 -1,426 Descending Boston Center
Mon 02:52:15 PM 44.8344 -69.0183 49° Northeast 284 327 2,300 -927 Descending Boston Center
Mon 02:53:17 PM 44.8586 -68.9361 67° East 247 284 1,700 -683 Descending Boston Center
Mon 02:54:18 PM 44.8436 -68.8811 111° Southeast 184 212 900 -738 Descending Boston Center
Mon 02:55:19 PM 44.8183 -68.8456 135° Southeast 148 170 200 -689 Descending Boston Center

Login

Don't have an account? Register now (free) for customized features, flight alerts, and more!